createdAt,value
2019-04-25T00:00:11.685Z,57.77
2019-04-25T00:01:13.468Z,59.90
2019-04-25T00:02:16.245Z,52.70
2019-04-25T00:02:53.854Z,61.03
2019-04-25T00:03:33.444Z,54.70
2019-04-25T00:04:12.228Z,49.23
2019-04-25T00:04:51.600Z,69.53
2019-04-25T00:05:31.136Z,59.53
2019-04-25T00:06:12.208Z,59.27
2019-04-25T00:06:52.227Z,92.47
2019-04-25T00:07:32.840Z,77.33
2019-04-25T00:08:12.262Z,52.60
2019-04-25T00:08:50.038Z,77.20
2019-04-25T00:09:29.621Z,55.93
2019-04-25T00:10:07.724Z,63.80
2019-04-25T00:10:45.581Z,62.80
2019-04-25T00:11:25.436Z,64.70
2019-04-25T00:12:05.401Z,78.53
2019-04-25T00:12:44.500Z,69.70
2019-04-25T00:13:23.395Z,57.43
2019-04-25T00:14:01.543Z,67.53
2019-04-25T00:14:39.612Z,52.53
2019-04-25T00:15:17.960Z,57.27
2019-04-25T00:15:55.764Z,76.27
2019-04-25T00:16:33.825Z,68.93
2019-04-25T00:17:11.816Z,71.57
2019-04-25T00:17:49.836Z,57.13
2019-04-25T00:18:28.778Z,54.63
2019-04-25T00:19:09.330Z,48.83
2019-04-25T00:19:47.082Z,56.97
2019-04-25T00:20:24.927Z,52.43
2019-04-25T00:21:09.442Z,53.00
2019-04-25T00:22:07.544Z,63.20
2019-04-25T00:23:02.031Z,54.57
2019-04-25T00:23:42.439Z,54.90
2019-04-25T00:24:35.453Z,52.50
2019-04-25T00:25:31.617Z,56.23
2019-04-25T00:26:23.230Z,54.97
2019-04-25T00:27:02.188Z,63.33
2019-04-25T00:27:41.493Z,61.70
2019-04-25T00:28:19.577Z,58.40
2019-04-25T00:29:02.022Z,52.30
2019-04-25T00:29:43.840Z,52.70
2019-04-25T00:30:22.622Z,57.40
2019-04-25T00:31:02.428Z,49.57
2019-04-25T00:31:40.989Z,58.80
2019-04-25T00:32:21.554Z,46.03
2019-04-25T00:32:59.483Z,43.97
2019-04-25T00:33:38.512Z,44.50
2019-04-25T00:34:16.253Z,46.70
2019-04-25T00:34:54.166Z,45.83
2019-04-25T00:35:33.153Z,53.40
2019-04-25T00:36:12.131Z,42.13
2019-04-25T00:36:51.653Z,49.63
2019-04-25T00:37:29.381Z,52.30
2019-04-25T00:38:07.201Z,49.20
2019-04-25T00:38:47.616Z,46.53
2019-04-25T00:39:24.636Z,50.93
2019-04-25T00:40:03.830Z,46.47
2019-04-25T00:40:42.752Z,47.90
2019-04-25T00:41:21.444Z,42.63
2019-04-25T00:42:00.301Z,57.93
2019-04-25T00:42:41.580Z,53.50
2019-04-25T00:43:19.403Z,41.13
2019-04-25T00:43:58.506Z,44.87
2019-04-25T00:44:39.077Z,38.13
2019-04-25T00:45:16.951Z,44.33
2019-04-25T00:45:54.827Z,59.07
2019-04-25T00:46:34.031Z,31.73
2019-04-25T00:47:11.896Z,48.00
2019-04-25T00:47:51.880Z,39.23
2019-04-25T00:48:31.714Z,41.17
2019-04-25T00:49:12.273Z,53.30
2019-04-25T00:49:50.053Z,48.43
2019-04-25T00:50:27.733Z,36.43
2019-04-25T00:51:08.172Z,48.53
2019-04-25T00:51:48.746Z,44.93
2019-04-25T00:52:31.464Z,45.33
2019-04-25T00:53:14.475Z,38.90
2019-04-25T00:53:54.821Z,41.87
2019-04-25T00:54:32.653Z,41.67
2019-04-25T00:55:26.071Z,41.80
2019-04-25T00:55:56.056Z,47.10
2019-04-25T00:56:35.586Z,43.17
2019-04-25T00:57:17.064Z,40.27
2019-04-25T00:58:03.359Z,35.73
2019-04-25T00:58:48.901Z,47.63
2019-04-25T00:59:43.884Z,38.97
2019-04-25T01:00:49.003Z,57.13
2019-04-25T01:01:54.179Z,39.73
2019-04-25T01:02:37.241Z,46.07
2019-04-25T01:03:21.478Z,49.03
2019-04-25T01:03:59.212Z,51.97
2019-04-25T01:04:37.147Z,47.37
2019-04-25T01:05:18.678Z,52.50
2019-04-25T01:05:57.611Z,35.90
2019-04-25T01:06:38.529Z,42.63
2019-04-25T01:07:17.436Z,42.63
2019-04-25T01:07:55.202Z,43.30
2019-04-25T01:08:32.855Z,38.43
2019-04-25T01:09:18.872Z,41.83
2019-04-25T01:10:03.169Z,39.40
2019-04-25T01:10:42.090Z,46.60
2019-04-25T01:11:21.400Z,42.33
2019-04-25T01:12:04.689Z,40.73
2019-04-25T01:12:44.557Z,44.87
2019-04-25T01:13:22.425Z,37.87
2019-04-25T01:14:02.162Z,41.87
2019-04-25T01:14:41.891Z,44.70
2019-04-25T01:15:21.442Z,38.40
2019-04-25T01:16:03.690Z,39.23
2019-04-25T01:16:42.127Z,39.00
2019-04-25T01:17:22.974Z,47.27
2019-04-25T01:18:02.260Z,41.13
2019-04-25T01:18:40.015Z,37.57
2019-04-25T01:19:17.865Z,36.50
2019-04-25T01:19:58.080Z,37.90
2019-04-25T01:20:36.978Z,36.23
2019-04-25T01:21:14.711Z,39.97
2019-04-25T01:21:54.803Z,41.23
2019-04-25T01:22:35.385Z,30.80
2019-04-25T01:23:14.362Z,38.43
2019-04-25T01:23:54.522Z,31.90
2019-04-25T01:24:33.918Z,37.43
2019-04-25T01:25:13.894Z,36.67
2019-04-25T01:25:53.430Z,39.80
2019-04-25T01:26:33.876Z,36.00
2019-04-25T01:27:13.485Z,34.00
2019-04-25T01:27:52.227Z,35.67
2019-04-25T01:28:35.558Z,39.17
2019-04-25T01:29:13.683Z,31.43
2019-04-25T01:29:54.184Z,33.00
2019-04-25T01:30:33.981Z,40.20
2019-04-25T01:31:17.027Z,42.60
2019-04-25T01:31:56.390Z,31.83
2019-04-25T01:32:38.931Z,40.60
2019-04-25T01:33:17.123Z,41.70
2019-04-25T01:33:55.592Z,41.90
2019-04-25T01:34:45.060Z,44.80
2019-04-25T01:35:34.552Z,37.20
2019-04-25T01:36:33.275Z,38.60
2019-04-25T01:37:23.952Z,32.20
2019-04-25T01:38:26.365Z,37.83
2019-04-25T01:39:09.861Z,39.40
2019-04-25T01:39:55.330Z,42.50
2019-04-25T01:40:49.796Z,33.07
2019-04-25T01:41:44.274Z,33.73
2019-04-25T01:42:47.872Z,36.47
2019-04-25T01:43:35.490Z,36.83
2019-04-25T01:44:40.663Z,36.73
2019-04-25T01:45:19.542Z,35.97
2019-04-25T01:45:58.622Z,44.27
2019-04-25T01:46:38.516Z,35.47
2019-04-25T01:47:17.288Z,39.10
2019-04-25T01:47:56.334Z,44.47
2019-04-25T01:48:34.214Z,39.53
2019-04-25T01:49:14.010Z,36.03
2019-04-25T01:49:52.826Z,36.97
2019-04-25T01:50:31.137Z,38.43
2019-04-25T01:51:08.956Z,41.63
2019-04-25T01:51:50.387Z,39.53
2019-04-25T01:52:33.558Z,32.37
2019-04-25T01:53:12.396Z,35.37
2019-04-25T01:53:50.524Z,29.87
2019-04-25T01:54:30.913Z,34.90
2019-04-25T01:55:10.705Z,49.17
2019-04-25T01:55:56.011Z,32.10
2019-04-25T01:56:29.914Z,39.33
2019-04-25T01:57:07.707Z,33.20
2019-04-25T01:57:45.562Z,43.43
2019-04-25T01:58:23.716Z,42.13
2019-04-25T01:59:01.617Z,41.20
2019-04-25T01:59:39.449Z,35.40
2019-04-25T02:00:23.602Z,34.27
2019-04-25T02:01:01.445Z,37.60
2019-04-25T02:01:42.088Z,34.77
2019-04-25T02:02:23.647Z,39.47
2019-04-25T02:03:01.630Z,36.53
2019-04-25T02:03:44.204Z,38.67
2019-04-25T02:04:23.164Z,36.57
2019-04-25T02:05:01.063Z,35.57
2019-04-25T02:05:40.212Z,44.93
2019-04-25T02:06:24.809Z,39.13
2019-04-25T02:07:08.154Z,37.37
2019-04-25T02:07:47.038Z,40.03
2019-04-25T02:08:25.085Z,40.60
2019-04-25T02:09:04.206Z,33.90
2019-04-25T02:09:44.295Z,38.60
2019-04-25T02:10:23.438Z,34.77
2019-04-25T02:11:17.928Z,39.23
2019-04-25T02:12:20.306Z,35.27
2019-04-25T02:13:03.879Z,33.23
2019-04-25T02:13:41.800Z,41.47
2019-04-25T02:14:19.616Z,44.83
2019-04-25T02:15:03.927Z,40.87
2019-04-25T02:15:40.887Z,39.23
2019-04-25T02:16:20.428Z,37.40
2019-04-25T02:17:00.362Z,38.33
2019-04-25T02:17:38.046Z,40.20
2019-04-25T02:18:15.923Z,37.30
2019-04-25T02:18:56.455Z,38.97
2019-04-25T02:19:35.797Z,38.20
2019-04-25T02:20:15.800Z,38.03
2019-04-25T02:20:58.864Z,37.50
2019-04-25T02:21:35.314Z,35.90
2019-04-25T02:22:14.545Z,44.57
2019-04-25T02:22:54.459Z,37.13
2019-04-25T02:23:31.821Z,51.75
2019-04-25T02:24:11.483Z,45.33
2019-04-25T02:24:54.611Z,57.17
2019-04-25T02:25:33.227Z,45.67
2019-04-25T02:26:16.033Z,48.77
2019-04-25T02:26:54.821Z,45.33
2019-04-25T02:27:34.117Z,50.20
2019-04-25T02:28:13.936Z,43.83
2019-04-25T02:28:55.165Z,39.40
2019-04-25T02:29:33.253Z,46.80
2019-04-25T02:30:16.030Z,37.63
2019-04-25T02:30:58.394Z,37.27
2019-04-25T02:31:35.137Z,38.57
2019-04-25T02:32:14.504Z,36.03
2019-04-25T02:32:56.987Z,50.77
2019-04-25T02:33:33.947Z,40.70
2019-04-25T02:34:17.504Z,39.47
2019-04-25T02:34:55.286Z,46.80
2019-04-25T02:35:34.719Z,39.90
2019-04-25T02:36:14.473Z,52.23
2019-04-25T02:36:57.443Z,43.23
2019-04-25T02:37:35.306Z,40.50
2019-04-25T02:38:14.717Z,49.30
2019-04-25T02:38:54.173Z,37.67
2019-04-25T02:39:36.860Z,44.23
2019-04-25T02:40:14.446Z,37.77
2019-04-25T02:40:55.850Z,42.33
2019-04-25T02:41:31.747Z,49.10
2019-04-25T02:42:10.822Z,43.93
2019-04-25T02:42:48.685Z,42.90
2019-04-25T02:43:26.732Z,36.63
2019-04-25T02:44:09.446Z,50.43
2019-04-25T02:44:49.842Z,44.20
2019-04-25T02:46:00.555Z,39.63
2019-04-25T02:46:59.172Z,37.57
2019-04-25T02:48:01.466Z,40.63
2019-04-25T02:49:31.798Z,49.33
2019-04-25T02:50:12.100Z,39.40
2019-04-25T02:51:01.281Z,40.77
2019-04-25T02:51:46.475Z,39.80
2019-04-25T02:52:41.284Z,38.93
2019-04-25T02:53:36.599Z,38.30
2019-04-25T02:54:14.081Z,35.00
2019-04-25T02:54:54.518Z,40.23
2019-04-25T02:55:36.797Z,43.33
2019-04-25T02:56:27.390Z,33.10
2019-04-25T02:56:54.700Z,36.07
2019-04-25T02:57:34.578Z,38.60
2019-04-25T02:58:15.553Z,39.07
2019-04-25T02:58:56.461Z,40.30
2019-04-25T02:59:36.974Z,39.17
2019-04-25T03:00:25.063Z,33.27
2019-04-25T03:01:14.337Z,36.40
2019-04-25T03:01:44.474Z,36.97
2019-04-25T03:02:24.866Z,35.53
2019-04-25T03:03:06.950Z,32.00
2019-04-25T03:03:44.938Z,37.13
2019-04-25T03:04:24.576Z,32.13
2019-04-25T03:05:06.255Z,41.53
2019-04-25T03:05:41.825Z,30.60
2019-04-25T03:06:19.651Z,32.00
2019-04-25T03:06:59.113Z,32.27
2019-04-25T03:07:37.051Z,40.03
2019-04-25T03:08:16.522Z,31.20
2019-04-25T03:08:56.843Z,32.03
2019-04-25T03:09:36.437Z,36.47
2019-04-25T03:10:17.187Z,39.10
2019-04-25T03:10:58.262Z,44.87
2019-04-25T03:11:36.280Z,32.53
2019-04-25T03:12:26.601Z,35.13
2019-04-25T03:12:54.440Z,41.13
2019-04-25T03:13:34.391Z,41.13
2019-04-25T03:14:12.146Z,44.00
2019-04-25T03:14:50.122Z,44.90
2019-04-25T03:15:27.958Z,46.80
2019-04-25T03:16:08.662Z,34.33
2019-04-25T03:16:47.098Z,38.50
2019-04-25T03:17:27.283Z,41.17
2019-04-25T03:18:10.856Z,42.07
2019-04-25T03:18:54.467Z,34.10
2019-04-25T03:19:48.994Z,44.00
2019-04-25T03:20:45.352Z,42.53
2019-04-25T03:21:30.691Z,52.13
2019-04-25T03:22:11.810Z,35.07
2019-04-25T03:22:54.677Z,31.07
2019-04-25T03:23:43.203Z,32.10
2019-04-25T03:24:21.858Z,36.47
2019-04-25T03:25:00.285Z,38.80
2019-04-25T03:25:39.260Z,42.83
2019-04-25T03:26:18.273Z,38.83
2019-04-25T03:26:57.344Z,37.87
2019-04-25T03:27:35.196Z,26.30
2019-04-25T03:28:16.411Z,33.57
2019-04-25T03:28:54.209Z,32.77
2019-04-25T03:29:32.106Z,35.10
2019-04-25T03:30:17.947Z,38.93
2019-04-25T03:30:57.793Z,35.70
2019-04-25T03:31:36.736Z,31.57
2019-04-25T03:32:19.578Z,30.33
2019-04-25T03:32:56.323Z,27.70
2019-04-25T03:33:37.758Z,29.63
2019-04-25T03:34:20.655Z,25.10
2019-04-25T03:34:58.386Z,27.43
2019-04-25T03:35:45.172Z,27.70
2019-04-25T03:36:17.310Z,33.83
2019-04-25T03:36:55.105Z,29.03
2019-04-25T03:37:35.711Z,38.80
2019-04-25T03:38:14.487Z,34.27
2019-04-25T03:38:54.070Z,29.30
2019-04-25T03:39:33.511Z,30.73
2019-04-25T03:40:11.823Z,22.73
2019-04-25T03:40:50.995Z,36.40
2019-04-25T03:41:34.171Z,33.37
2019-04-25T03:42:12.101Z,28.90
2019-04-25T03:42:49.995Z,31.13
2019-04-25T03:43:30.146Z,28.57
2019-04-25T03:44:08.149Z,29.87
2019-04-25T03:44:50.019Z,29.10
2019-04-25T03:45:27.978Z,32.90
2019-04-25T03:46:06.229Z,25.57
2019-04-25T03:46:49.803Z,28.07
2019-04-25T03:47:28.652Z,24.67
2019-04-25T03:48:07.497Z,42.63
2019-04-25T03:48:46.440Z,32.30
2019-04-25T03:49:24.230Z,35.67
2019-04-25T03:50:04.429Z,27.90
2019-04-25T03:50:44.132Z,29.20
2019-04-25T03:51:24.159Z,32.93
2019-04-25T03:52:05.241Z,26.73
2019-04-25T03:52:43.668Z,24.03
2019-04-25T03:53:21.461Z,24.63
2019-04-25T03:53:59.308Z,27.80
2019-04-25T03:54:39.829Z,25.43
2019-04-25T03:55:17.682Z,31.17
2019-04-25T03:55:58.734Z,31.17
2019-04-25T03:56:37.666Z,31.23
2019-04-25T03:57:15.526Z,25.77
2019-04-25T03:57:53.930Z,28.47
2019-04-25T03:58:35.059Z,28.33
2019-04-25T03:59:16.144Z,33.77
2019-04-25T03:59:54.002Z,27.43
2019-04-25T04:00:36.410Z,44.37
2019-04-25T04:01:15.599Z,24.90
2019-04-25T04:01:54.197Z,27.83
2019-04-25T04:02:35.608Z,24.43
2019-04-25T04:03:15.766Z,22.67
2019-04-25T04:03:56.619Z,23.93
2019-04-25T04:04:36.122Z,28.63
2019-04-25T04:05:14.898Z,22.07
2019-04-25T04:05:54.207Z,22.83
2019-04-25T04:06:34.517Z,30.70
2019-04-25T04:07:14.330Z,23.27
2019-04-25T04:07:53.535Z,24.77
2019-04-25T04:08:31.441Z,25.37
2019-04-25T04:09:11.972Z,23.40
2019-04-25T04:09:49.787Z,27.23
2019-04-25T04:10:27.558Z,23.33
2019-04-25T04:11:10.133Z,26.10
2019-04-25T04:11:47.750Z,25.67
2019-04-25T04:12:25.524Z,27.30
2019-04-25T04:13:05.147Z,25.60
2019-04-25T04:13:44.596Z,23.50
2019-04-25T04:14:24.041Z,22.77
2019-04-25T04:15:03.706Z,26.60
2019-04-25T04:15:43.332Z,28.90
2019-04-25T04:16:23.728Z,27.00
2019-04-25T04:17:17.136Z,39.30
2019-04-25T04:18:00.028Z,24.43
2019-04-25T04:18:45.457Z,27.63
2019-04-25T04:19:26.335Z,34.03
2019-04-25T04:20:34.042Z,26.70
2019-04-25T04:21:27.242Z,22.37
2019-04-25T04:22:15.095Z,26.80
2019-04-25T04:22:59.455Z,30.87
2019-04-25T04:23:48.795Z,22.93
2019-04-25T04:24:44.065Z,25.63
2019-04-25T04:25:23.779Z,22.77
2019-04-25T04:26:03.406Z,24.53
2019-04-25T04:26:41.202Z,28.10
2019-04-25T04:27:19.434Z,19.90
2019-04-25T04:27:57.138Z,23.50
2019-04-25T04:28:36.713Z,22.07
2019-04-25T04:29:15.289Z,23.50
2019-04-25T04:29:54.665Z,24.57
2019-04-25T04:30:35.285Z,23.10
2019-04-25T04:31:14.344Z,25.63
2019-04-25T04:31:52.875Z,21.27
2019-04-25T04:32:31.988Z,18.70
2019-04-25T04:33:21.491Z,22.30
2019-04-25T04:33:50.319Z,20.27
2019-04-25T04:34:28.054Z,20.10
2019-04-25T04:35:07.135Z,20.23
2019-04-25T04:35:46.822Z,26.80
2019-04-25T04:36:26.334Z,21.27
2019-04-25T04:37:04.165Z,21.00
2019-04-25T04:37:43.151Z,26.10
2019-04-25T04:38:22.248Z,20.97
2019-04-25T04:38:59.971Z,27.87
2019-04-25T04:39:38.727Z,21.03
2019-04-25T04:40:17.618Z,18.20
2019-04-25T04:40:57.798Z,21.37
2019-04-25T04:41:35.581Z,21.90
2019-04-25T04:42:14.995Z,29.53
2019-04-25T04:42:57.196Z,25.07
2019-04-25T04:44:24.797Z,21.07
2019-04-25T04:45:03.615Z,21.90
2019-04-25T04:45:44.989Z,20.23
2019-04-25T04:46:23.967Z,21.50
2019-04-25T04:47:03.801Z,17.77
2019-04-25T04:47:43.258Z,19.80
2019-04-25T04:48:21.252Z,19.13
2019-04-25T04:49:05.315Z,22.43
2019-04-25T04:49:43.976Z,25.90
2019-04-25T04:50:23.269Z,23.60
2019-04-25T04:51:03.284Z,17.40
2019-04-25T04:51:41.194Z,19.50
2019-04-25T04:52:19.108Z,23.37
2019-04-25T04:52:56.989Z,21.03
2019-04-25T04:53:35.836Z,21.57
2019-04-25T04:54:17.122Z,22.80
2019-04-25T04:55:05.286Z,21.83
2019-04-25T04:55:38.023Z,22.50
2019-04-25T04:56:16.789Z,23.70
2019-04-25T04:56:55.450Z,28.57
2019-04-25T04:57:36.139Z,20.17
2019-04-25T04:58:17.647Z,20.87
2019-04-25T04:58:55.599Z,20.93
2019-04-25T04:59:33.771Z,23.13
2019-04-25T05:00:14.161Z,20.37
2019-04-25T05:00:51.645Z,20.00
2019-04-25T05:01:34.620Z,21.03
2019-04-25T05:02:24.498Z,25.07
2019-04-25T05:03:27.307Z,26.63
2019-04-25T05:04:54.689Z,19.73
2019-04-25T05:06:24.060Z,23.50
2019-04-25T05:07:51.574Z,18.73
2019-04-25T05:09:19.795Z,23.50
2019-04-25T05:10:47.282Z,25.03
2019-04-25T05:12:15.242Z,22.53
2019-04-25T05:13:44.124Z,17.90
2019-04-25T05:15:12.597Z,25.30
2019-04-25T05:16:40.930Z,19.47
2019-04-25T05:18:08.710Z,23.73
2019-04-25T05:19:36.212Z,23.57
2019-04-25T05:21:04.293Z,22.33
2019-04-25T05:22:33.259Z,27.70
2019-04-25T05:24:00.711Z,20.33
2019-04-25T05:25:28.143Z,25.70
2019-04-25T05:26:55.935Z,23.20
2019-04-25T05:28:24.600Z,17.57
2019-04-25T05:29:53.884Z,21.10
2019-04-25T05:31:25.503Z,19.63
2019-04-25T05:32:54.359Z,19.80
2019-04-25T05:34:22.063Z,19.77
2019-04-25T05:35:49.816Z,29.30
2019-04-25T05:37:17.588Z,20.30
2019-04-25T05:38:45.322Z,23.57
2019-04-25T05:39:24.034Z,23.40
2019-04-25T05:40:03.696Z,21.13
2019-04-25T05:40:53.918Z,24.20
2019-04-25T05:41:40.605Z,19.97
2019-04-25T05:42:28.977Z,21.37
2019-04-25T05:43:09.632Z,18.17
2019-04-25T05:43:46.199Z,18.30
2019-04-25T05:44:25.151Z,20.50
2019-04-25T05:45:01.669Z,18.50
2019-04-25T05:45:38.321Z,20.10
2019-04-25T05:46:16.863Z,22.17
2019-04-25T05:46:54.522Z,18.10
2019-04-25T05:47:33.243Z,23.93
2019-04-25T05:48:09.478Z,18.70
2019-04-25T05:48:45.737Z,26.77
2019-04-25T05:49:24.262Z,22.13
2019-04-25T05:50:00.433Z,21.77
2019-04-25T05:50:38.549Z,22.23
2019-04-25T05:51:15.860Z,19.47
2019-04-25T05:51:53.921Z,20.77
2019-04-25T05:52:31.372Z,23.20
2019-04-25T05:53:08.483Z,24.07
2019-04-25T05:53:47.193Z,23.70
2019-04-25T05:54:26.903Z,22.87
2019-04-25T05:55:05.956Z,19.37
2019-04-25T05:55:44.886Z,19.80
2019-04-25T05:56:26.862Z,22.37
2019-04-25T05:57:05.658Z,18.47
2019-04-25T05:57:49.562Z,18.60
2019-04-25T05:58:25.883Z,25.20
2019-04-25T05:59:05.504Z,23.80
2019-04-25T05:59:45.214Z,19.50
2019-04-25T06:00:25.095Z,23.00
2019-04-25T06:01:05.477Z,20.93
2019-04-25T06:01:43.526Z,19.67
2019-04-25T06:02:25.370Z,22.60
2019-04-25T06:03:03.825Z,23.10
2019-04-25T06:03:44.501Z,18.57
2019-04-25T06:04:24.639Z,24.00
2019-04-25T06:05:03.516Z,18.47
2019-04-25T06:05:41.424Z,17.03
2019-04-25T06:06:19.288Z,22.40
2019-04-25T06:06:57.249Z,22.17
2019-04-25T06:07:35.205Z,23.40
2019-04-25T06:08:14.127Z,22.20
2019-04-25T06:09:00.563Z,19.80
2019-04-25T06:09:58.077Z,24.30
2019-04-25T06:11:09.387Z,19.67
2019-04-25T06:12:04.726Z,26.57
2019-04-25T06:13:00.843Z,25.23
2019-04-25T06:13:45.181Z,21.10
2019-04-25T06:14:24.071Z,26.33
2019-04-25T06:15:03.018Z,21.30
2019-04-25T06:15:45.312Z,23.40
2019-04-25T06:16:37.175Z,24.33
2019-04-25T06:17:20.137Z,24.43
2019-04-25T06:18:16.139Z,26.03
2019-04-25T06:19:14.154Z,22.60
2019-04-25T06:19:49.515Z,22.13
2019-04-25T06:20:29.746Z,24.80
2019-04-25T06:21:10.601Z,24.27
2019-04-25T06:21:50.764Z,23.47
2019-04-25T06:22:47.105Z,21.40
2019-04-25T06:24:04.274Z,20.53
2019-04-25T06:24:48.502Z,26.77
2019-04-25T06:25:30.706Z,26.10
2019-04-25T06:26:19.084Z,29.90
2019-04-25T06:26:56.369Z,28.60
2019-04-25T06:27:39.458Z,25.07
2019-04-25T06:28:19.462Z,24.00
2019-04-25T06:28:59.808Z,26.83
2019-04-25T06:29:38.854Z,21.50
2019-04-25T06:30:30.092Z,24.73
2019-04-25T06:31:10.314Z,21.87
2019-04-25T06:32:03.385Z,20.57
2019-04-25T06:32:31.222Z,19.30
2019-04-25T06:33:10.196Z,19.43
2019-04-25T06:33:49.948Z,20.90
2019-04-25T06:34:31.702Z,19.10
2019-04-25T06:35:09.728Z,21.60
2019-04-25T06:35:47.587Z,21.27
2019-04-25T06:36:27.580Z,23.27
2019-04-25T06:37:06.236Z,23.60
2019-04-25T06:37:44.112Z,19.77
2019-04-25T06:38:26.040Z,28.83
2019-04-25T06:39:04.104Z,21.80
2019-04-25T06:39:44.223Z,22.83
2019-04-25T06:40:24.161Z,23.57
2019-04-25T06:41:03.571Z,23.60
2019-04-25T06:41:45.290Z,21.63
2019-04-25T06:42:24.801Z,17.63
2019-04-25T06:43:03.412Z,19.33
2019-04-25T06:43:44.246Z,30.37
2019-04-25T06:44:37.328Z,24.03
2019-04-25T06:45:36.089Z,21.20
2019-04-25T06:46:30.641Z,20.80
2019-04-25T06:47:25.659Z,29.77
2019-04-25T06:48:09.858Z,20.93
2019-04-25T06:48:57.860Z,21.33
2019-04-25T06:49:37.788Z,21.30
2019-04-25T06:50:15.916Z,23.77
2019-04-25T06:50:58.337Z,29.13
2019-04-25T06:51:55.228Z,22.40
2019-04-25T06:52:35.319Z,25.27
2019-04-25T06:53:13.562Z,26.03
2019-04-25T06:53:53.494Z,25.73
2019-04-25T06:54:31.625Z,27.20
2019-04-25T06:55:10.200Z,21.10
2019-04-25T06:55:49.793Z,25.70
2019-04-25T06:56:27.661Z,23.53
2019-04-25T06:57:06.738Z,23.80
2019-04-25T06:57:45.013Z,20.00
2019-04-25T06:58:26.883Z,32.10
2019-04-25T06:59:05.773Z,21.13
2019-04-25T06:59:44.729Z,21.83
2019-04-25T07:00:27.271Z,28.23
2019-04-25T07:01:05.660Z,19.57
2019-04-25T07:01:45.233Z,20.60
2019-04-25T07:02:25.367Z,17.87
2019-04-25T07:03:04.182Z,18.70
2019-04-25T07:03:42.176Z,20.57
2019-04-25T07:04:26.978Z,24.33
2019-04-25T07:05:07.333Z,20.50
2019-04-25T07:05:45.251Z,21.63
2019-04-25T07:06:26.066Z,21.13
2019-04-25T07:07:12.106Z,18.53
2019-04-25T07:07:47.239Z,21.00
2019-04-25T07:08:26.919Z,27.50
2019-04-25T07:09:07.609Z,21.23
2019-04-25T07:09:47.121Z,19.77
2019-04-25T07:10:26.148Z,26.50
2019-04-25T07:11:04.175Z,24.27
2019-04-25T07:11:48.140Z,25.07
2019-04-25T07:12:29.291Z,20.53
2019-04-25T07:13:06.480Z,21.00
2019-04-25T07:13:48.676Z,18.13
2019-04-25T07:14:29.479Z,20.93
2019-04-25T07:15:07.930Z,16.67
2019-04-25T07:15:46.960Z,24.80
2019-04-25T07:16:27.287Z,18.60
2019-04-25T07:17:07.268Z,17.53
2019-04-25T07:17:46.845Z,18.00
2019-04-25T07:18:31.248Z,19.23
2019-04-25T07:19:06.133Z,17.33
2019-04-25T07:19:44.209Z,16.70
2019-04-25T07:20:26.117Z,18.47
2019-04-25T07:21:04.776Z,18.57
2019-04-25T07:21:44.451Z,17.23
2019-04-25T07:22:23.944Z,24.30
2019-04-25T07:23:03.616Z,20.20
2019-04-25T07:23:46.164Z,15.07
2019-04-25T07:24:24.810Z,15.63
2019-04-25T07:25:04.215Z,23.67
2019-04-25T07:25:46.577Z,15.97
2019-04-25T07:26:40.953Z,16.40
2019-04-25T07:27:37.282Z,18.60
2019-04-25T07:28:35.633Z,16.70
2019-04-25T07:29:33.722Z,16.33
2019-04-25T07:30:35.471Z,15.87
2019-04-25T07:31:20.019Z,14.63
2019-04-25T07:32:08.622Z,17.83
2019-04-25T07:32:50.853Z,16.83
2019-04-25T07:33:35.049Z,17.53
2019-04-25T07:34:19.420Z,21.73
2019-04-25T07:35:00.751Z,15.30
2019-04-25T07:35:38.604Z,16.37
2019-04-25T07:36:16.474Z,17.40
2019-04-25T07:36:57.025Z,14.77
2019-04-25T07:37:39.044Z,16.53
2019-04-25T07:38:16.324Z,14.53
2019-04-25T07:39:05.543Z,15.33
2019-04-25T07:39:36.434Z,13.57
2019-04-25T07:40:17.253Z,15.90
2019-04-25T07:40:54.979Z,14.27
2019-04-25T07:41:34.282Z,12.50
2019-04-25T07:42:16.075Z,13.20
2019-04-25T07:42:53.929Z,16.50
2019-04-25T07:43:34.211Z,19.90
2019-04-25T07:44:14.558Z,12.97
2019-04-25T07:44:55.206Z,14.30
2019-04-25T07:45:34.698Z,13.83
2019-04-25T07:46:13.549Z,14.87
2019-04-25T07:46:51.319Z,15.10
2019-04-25T07:47:31.281Z,23.43
2019-04-25T07:48:09.076Z,13.97
2019-04-25T07:48:49.684Z,14.83
2019-04-25T07:49:28.481Z,18.13
2019-04-25T07:50:07.679Z,15.00
2019-04-25T07:50:48.489Z,12.33
2019-04-25T07:51:28.161Z,16.30
2019-04-25T07:52:07.712Z,15.60
2019-04-25T07:52:47.387Z,16.37
2019-04-25T07:53:30.286Z,13.53
2019-04-25T07:54:08.673Z,13.90
2019-04-25T07:54:48.069Z,13.47
2019-04-25T07:55:27.575Z,18.13
2019-04-25T07:56:05.332Z,14.27
2019-04-25T07:56:44.869Z,15.83
2019-04-25T07:57:23.754Z,15.17
2019-04-25T07:58:03.206Z,14.87
2019-04-25T07:58:50.478Z,23.20
2019-04-25T07:59:23.716Z,15.90
2019-04-25T08:00:03.271Z,14.43
2019-04-25T08:00:41.808Z,15.90
2019-04-25T08:01:19.735Z,15.10
2019-04-25T08:01:57.620Z,14.07
2019-04-25T08:02:35.436Z,14.83
2019-04-25T08:03:13.774Z,14.10
2019-04-25T08:03:53.810Z,13.80
2019-04-25T08:04:34.845Z,17.37
2019-04-25T08:05:14.473Z,14.50
2019-04-25T08:05:56.469Z,14.80
2019-04-25T08:06:37.986Z,13.87
2019-04-25T08:07:17.576Z,13.17
2019-04-25T08:07:55.403Z,13.93
2019-04-25T08:08:33.967Z,13.37
2019-04-25T08:09:15.731Z,14.47
2019-04-25T08:09:54.227Z,14.53
2019-04-25T08:10:41.430Z,13.30
2019-04-25T08:11:19.346Z,22.47
2019-04-25T08:11:57.218Z,15.77
2019-04-25T08:12:35.852Z,15.87
2019-04-25T08:13:15.031Z,13.97
2019-04-25T08:14:11.402Z,13.53
2019-04-25T08:15:07.659Z,13.50
2019-04-25T08:15:53.750Z,13.23
2019-04-25T08:16:34.314Z,18.87
2019-04-25T08:17:14.477Z,11.67
2019-04-25T08:18:04.065Z,13.90
2019-04-25T08:18:43.345Z,17.80
2019-04-25T08:19:23.594Z,15.90
2019-04-25T08:20:01.480Z,12.53
2019-04-25T08:20:40.134Z,15.80
2019-04-25T08:21:18.022Z,12.70
2019-04-25T08:21:55.963Z,12.93
2019-04-25T08:22:50.149Z,21.47
2019-04-25T08:23:15.953Z,13.53
2019-04-25T08:23:53.823Z,14.50
2019-04-25T08:24:34.922Z,12.43
2019-04-25T08:25:13.880Z,15.20
2019-04-25T08:25:51.665Z,14.67
2019-04-25T08:26:31.190Z,13.27
2019-04-25T08:27:13.291Z,13.90
2019-04-25T08:27:53.503Z,13.67
2019-04-25T08:28:48.835Z,15.10
2019-04-25T08:29:15.287Z,14.10
2019-04-25T08:29:54.832Z,19.63
2019-04-25T08:30:36.697Z,20.87
2019-04-25T08:31:16.948Z,16.57
2019-04-25T08:31:54.951Z,13.93
2019-04-25T08:32:35.091Z,18.43
2019-04-25T08:33:15.902Z,13.70
2019-04-25T08:33:55.275Z,17.27
2019-04-25T08:34:35.738Z,16.80
2019-04-25T08:35:16.067Z,17.87
2019-04-25T08:36:08.232Z,23.50
2019-04-25T08:36:38.077Z,13.27
2019-04-25T08:37:20.320Z,13.10
2019-04-25T08:37:59.295Z,13.33
2019-04-25T08:38:38.994Z,16.10
2019-04-25T08:39:17.919Z,15.53
2019-04-25T08:39:58.934Z,15.87
2019-04-25T08:40:40.444Z,12.57
2019-04-25T08:41:18.043Z,12.50
2019-04-25T08:41:56.921Z,12.53
2019-04-25T08:42:36.757Z,14.47
2019-04-25T08:43:15.576Z,15.60
2019-04-25T08:43:54.480Z,21.63
2019-04-25T08:44:33.059Z,13.40
2019-04-25T08:45:13.519Z,14.77
2019-04-25T08:45:51.267Z,13.73
2019-04-25T08:46:28.963Z,18.00
2019-04-25T08:47:06.865Z,14.27
2019-04-25T08:47:44.592Z,14.87
2019-04-25T08:48:26.283Z,15.63
2019-04-25T08:49:14.874Z,17.03
2019-04-25T08:49:59.981Z,20.43
2019-04-25T08:50:45.110Z,22.00
2019-04-25T08:51:23.878Z,17.80
2019-04-25T08:52:01.752Z,18.00
2019-04-25T08:52:40.088Z,18.93
2019-04-25T08:53:23.806Z,14.33
2019-04-25T08:54:06.901Z,20.80
2019-04-25T08:55:04.322Z,19.90
2019-04-25T08:55:48.500Z,16.70
2019-04-25T08:56:28.963Z,17.30
2019-04-25T08:57:09.302Z,19.33
2019-04-25T08:57:58.430Z,16.27
2019-04-25T08:58:46.720Z,22.13
2019-04-25T08:59:57.796Z,19.10
2019-04-25T09:01:04.088Z,19.50
2019-04-25T09:01:50.209Z,22.60
2019-04-25T09:02:54.599Z,15.73
2019-04-25T09:03:44.353Z,20.57
2019-04-25T09:04:46.688Z,18.43
2019-04-25T09:05:37.381Z,15.20
2019-04-25T09:06:14.930Z,19.37
2019-04-25T09:06:54.382Z,18.77
2019-04-25T09:07:34.905Z,21.40
2019-04-25T09:08:11.671Z,23.23
2019-04-25T09:08:49.396Z,23.20
2019-04-25T09:09:28.647Z,17.50
2019-04-25T09:10:07.212Z,21.10
2019-04-25T09:10:45.153Z,21.47
2019-04-25T09:11:24.486Z,16.40
2019-04-25T09:12:04.211Z,22.37
2019-04-25T09:12:43.927Z,26.23
2019-04-25T09:13:21.601Z,17.20
2019-04-25T09:14:01.012Z,18.00